Time;durP1;ratioP1;P1;durP2;ratioP2;P2;SDS_P1;SDS_P2;PMS_P1;PMS_P2;Temp;Humidity;BMP_temperature;BMP_pressure;BME280_temperature;BME280_humidity;BME280_pressure;Samples;Min_cycle;Max_cycle;Signal;HPM_P1;HPM_P2
2023/02/05 00:04:58;;;;;;;20.25;13.07;;;;;;;7.99;100.00;103710.16;10415532;28;20057;-65
2023/02/05 00:09:58;;;;;;;14.68;10.15;;;;;;;7.96;100.00;103698.72;10415576;28;20045;-65
2023/02/05 00:14:58;;;;;;;16.73;10.57;;;;;;;7.93;100.00;103694.41;10416658;28;20044;-65
2023/02/05 00:19:59;;;;;;;8.93;7.03;;;;;;;7.91;100.00;103696.34;10414315;28;20473;-65
2023/02/05 00:24:59;;;;;;;7.53;5.82;;;;;;;7.91;100.00;103712.53;10421310;28;20064;-66
2023/02/05 00:30:00;;;;;;;6.63;4.55;;;;;;;7.88;100.00;103705.56;10428597;28;20520;-65
2023/02/05 00:35:01;;;;;;;11.98;4.95;;;;;;;7.90;100.00;103698.19;10427970;28;20060;-65
2023/02/05 00:40:01;;;;;;;8.40;3.88;;;;;;;7.87;100.00;103708.34;10429291;28;20069;-66
2023/02/05 00:45:02;;;;;;;6.75;3.53;;;;;;;7.89;100.00;103703.72;10460560;28;20036;-65
2023/02/05 00:50:02;;;;;;;12.05;3.33;;;;;;;7.87;100.00;103716.44;10428505;28;20448;-65
2023/02/05 00:55:03;;;;;;;4.28;2.75;;;;;;;7.85;100.00;103715.72;10428878;28;20044;-66
2023/02/05 01:00:05;;;;;;;3.53;2.65;;;;;;;7.84;100.00;103708.56;10428220;28;20048;-65
2023/02/05 01:05:06;;;;;;;3.45;2.13;;;;;;;7.83;100.00;103714.94;10460246;28;20038;-65
2023/02/05 01:10:07;;;;;;;7.72;2.30;;;;;;;7.80;100.00;103715.16;10428075;28;20038;-66
2023/02/05 01:15:08;;;;;;;2.53;1.55;;;;;;;7.77;100.00;103702.75;10428048;28;20041;-65
2023/02/05 01:20:10;;;;;;;6.03;3.05;;;;;;;7.77;100.00;103694.66;10427977;28;20033;-65
2023/02/05 01:25:11;;;;;;;7.80;1.92;;;;;;;7.77;100.00;103715.38;10428791;28;20045;-65
2023/02/05 01:30:12;;;;;;;6.20;2.40;;;;;;;7.79;100.00;103721.53;10427603;28;20053;-67
2023/02/05 01:35:12;;;;;;;1.70;1.45;;;;;;;7.77;100.00;103715.38;10424269;28;20404;-65
2023/02/05 01:40:13;;;;;;;1.25;1.20;;;;;;;7.77;100.00;103720.78;10421160;28;20033;-65
2023/02/05 01:45:31;;;;;;;7.72;2.50;;;;;;;7.76;100.00;103697.47;10420169;28;20030;-65
2023/02/05 01:50:41;;;;;;;6.78;2.42;;;;;;;7.73;100.00;103686.91;10420844;28;20029;-65
2023/02/05 01:55:50;;;;;;;5.40;2.15;;;;;;;7.71;100.00;103678.91;10421283;28;20030;-65
2023/02/05 02:00:50;;;;;;;12.23;2.55;;;;;;;7.68;100.00;103698.88;10435372;28;20116;-65
2023/02/05 02:05:51;;;;;;;11.48;2.75;;;;;;;7.68;100.00;103680.00;10419030;28;20124;-65
2023/02/05 02:10:51;;;;;;;5.80;2.28;;;;;;;7.66;100.00;103670.31;10419275;28;20436;-66
2023/02/05 02:15:52;;;;;;;5.63;2.95;;;;;;;7.62;100.00;103672.34;10419842;28;20444;-65
2023/02/05 02:21:01;;;;;;;9.70;2.55;;;;;;;7.61;100.00;103651.75;10401016;28;20028;-66
2023/02/05 02:26:33;;;;;;;9.25;3.90;;;;;;;7.60;100.00;103633.84;10419546;28;20026;-66
2023/02/05 02:31:42;;;;;;;6.88;3.78;;;;;;;7.62;100.00;103631.03;10417929;28;20049;-65
2023/02/05 02:36:53;;;;;;;16.08;4.78;;;;;;;7.63;100.00;103632.78;10432857;28;20037;-66
2023/02/05 02:42:15;;;;;;;13.52;3.65;;;;;;;7.60;100.00;103625.75;10449882;28;20037;-66
2023/02/05 02:47:20;;;;;;;2.97;2.75;;;;;;;7.66;100.00;103632.56;10444510;28;20056;-65
2023/02/05 02:52:21;;;;;;;7.47;4.40;;;;;;;7.66;100.00;103644.19;10433894;28;20466;-65
2023/02/05 02:57:23;;;;;;;7.38;3.83;;;;;;;7.66;100.00;103633.41;10451617;28;20130;-65
2023/02/05 03:02:25;;;;;;;5.22;3.13;;;;;;;7.65;100.00;103622.72;10434010;28;20130;-66
2023/02/05 03:07:32;;;;;;;6.97;3.97;;;;;;;7.64;100.00;103639.88;10433822;28;20025;-66
2023/02/05 03:12:32;;;;;;;11.40;4.18;;;;;;;7.67;100.00;103643.22;10433391;28;20037;-66
2023/02/05 03:17:33;;;;;;;9.00;5.32;;;;;;;7.64;100.00;103656.06;10450030;28;20033;-65
2023/02/05 03:22:34;;;;;;;9.77;5.30;;;;;;;7.58;100.00;103654.66;10449004;28;20029;-65
2023/02/05 03:27:34;;;;;;;7.88;4.72;;;;;;;7.53;100.00;103650.56;10418090;28;20025;-65
2023/02/05 03:32:49;;;;;;;9.43;5.53;;;;;;;7.50;100.00;103651.66;10417428;28;20046;-65
2023/02/05 03:38:03;;;;;;;14.10;6.40;;;;;;;7.44;100.00;103654.81;10446928;28;20448;-64
2023/02/05 03:43:29;;;;;;;12.70;5.32;;;;;;;7.37;100.00;103651.69;10446825;28;20065;-64
2023/02/05 03:48:38;;;;;;;11.90;6.28;;;;;;;7.30;100.00;103658.47;10416201;28;20064;-64
2023/02/05 03:53:58;;;;;;;8.10;6.82;;;;;;;7.32;100.00;103661.06;10447686;28;20029;-63
2023/02/05 03:58:59;;;;;;;12.70;7.25;;;;;;;7.33;100.00;103676.25;10444269;28;20067;-64
2023/02/05 04:03:59;;;;;;;9.25;5.88;;;;;;;7.34;100.00;103670.78;10447864;28;20075;-64
2023/02/05 04:09:00;;;;;;;11.05;6.15;;;;;;;7.36;100.00;103689.53;10414443;28;20069;-64
2023/02/05 04:14:00;;;;;;;7.82;6.75;;;;;;;7.33;100.00;103692.44;10415593;28;20547;-63
2023/02/05 04:19:00;;;;;;;8.15;5.47;;;;;;;7.29;100.00;103697.19;10430714;28;20038;-63
2023/02/05 04:24:01;;;;;;;13.30;4.57;;;;;;;7.28;100.00;103697.28;10415154;28;20117;-64
2023/02/05 04:29:01;;;;;;;4.07;3.63;;;;;;;7.17;100.00;103695.31;10413865;28;20034;-64
2023/02/05 04:34:01;;;;;;;2.72;2.33;;;;;;;7.11;100.00;103711.91;10415307;28;20196;-64
2023/02/05 04:39:02;;;;;;;6.43;2.22;;;;;;;7.03;100.00;103709.75;10413720;28;20436;-64
2023/02/05 04:44:02;;;;;;;12.38;2.28;;;;;;;6.98;100.00;103722.69;10413763;28;20053;-64
2023/02/05 04:49:03;;;;;;;1.60;1.55;;;;;;;6.89;100.00;103737.66;10414984;28;20556;-64
2023/02/05 04:54:03;;;;;;;15.60;3.45;;;;;;;6.79;100.00;103755.38;10414769;28;20041;-64
2023/02/05 04:59:03;;;;;;;7.57;3.00;;;;;;;6.70;100.00;103756.88;10414071;28;20033;-64
2023/02/05 05:04:04;;;;;;;10.95;2.90;;;;;;;6.65;100.00;103763.53;10413953;28;20033;-64
2023/02/05 05:09:04;;;;;;;7.15;3.53;;;;;;;6.50;100.00;103773.47;10414483;28;20120;-65
2023/02/05 05:14:05;;;;;;;10.13;4.03;;;;;;;6.40;100.00;103794.72;10452782;28;20460;-65
2023/02/05 05:19:05;;;;;;;12.82;4.93;;;;;;;6.29;100.00;103799.97;10420738;28;20049;-64
2023/02/05 05:24:06;;;;;;;19.13;4.40;;;;;;;6.17;100.00;103806.97;10454150;28;20038;-64
2023/02/05 05:29:06;;;;;;;7.22;2.65;;;;;;;5.88;100.00;103805.22;10436914;28;20112;-64
2023/02/05 05:34:06;;;;;;;11.90;3.03;;;;;;;5.70;100.00;103818.84;10423060;28;20051;-64
2023/02/05 05:44:26;;;;;;;8.18;3.20;;;;;;;5.56;100.00;103822.38;10421083;28;20034;-64
2023/02/05 05:49:26;;;;;;;16.02;2.85;;;;;;;5.69;100.00;103810.88;10420644;28;20064;-65
2023/02/05 05:54:26;;;;;;;20.08;4.38;;;;;;;5.76;100.00;103821.16;10420721;28;20071;-65
2023/02/05 05:59:27;;;;;;;10.68;2.28;;;;;;;5.82;100.00;103836.03;10420471;28;20413;-66
2023/02/05 06:04:27;;;;;;;3.55;1.77;;;;;;;5.83;100.00;103833.25;10420105;28;20057;-65
2023/02/05 06:09:28;;;;;;;15.30;3.33;;;;;;;5.88;100.00;103832.97;10419958;28;20049;-65
2023/02/05 06:14:28;;;;;;;24.63;3.78;;;;;;;5.85;100.00;103851.13;10420983;28;20031;-65
2023/02/05 06:19:29;;;;;;;12.82;4.88;;;;;;;5.87;100.00;103852.78;10419535;28;20065;-66
2023/02/05 06:24:29;;;;;;;13.43;4.30;;;;;;;5.91;100.00;103869.59;10418943;28;20037;-65
2023/02/05 06:29:29;;;;;;;26.35;4.68;;;;;;;5.85;100.00;103873.50;10419500;28;20037;-65
2023/02/05 06:34:31;;;;;;;18.48;5.05;;;;;;;5.89;100.00;103880.41;10417165;28;20420;-64
2023/02/05 06:39:31;;;;;;;15.05;5.22;;;;;;;5.98;100.00;103914.00;10451452;28;20117;-64
2023/02/05 06:44:32;;;;;;;11.75;4.55;;;;;;;5.93;100.00;103910.72;10435009;28;20456;-65
2023/02/05 06:49:32;;;;;;;18.98;5.47;;;;;;;5.89;100.00;103914.53;10419583;28;20039;-64
2023/02/05 06:54:33;;;;;;;12.15;4.88;;;;;;;5.85;100.00;103929.13;10417159;28;20393;-65
2023/02/05 06:59:33;;;;;;;12.18;4.35;;;;;;;5.79;100.00;103928.53;10418224;28;20037;-65
2023/02/05 07:04:33;;;;;;;27.25;5.00;;;;;;;5.83;100.00;103943.50;10416517;28;20033;-66
2023/02/05 07:09:34;;;;;;;17.98;5.68;;;;;;;5.86;100.00;103958.59;10418218;28;20026;-65
2023/02/05 07:14:38;;;;;;;19.63;5.07;;;;;;;5.85;100.00;103964.94;10416336;28;20034;-65
2023/02/05 07:19:38;;;;;;;18.27;5.05;;;;;;;5.95;100.00;103976.06;10450412;28;20113;-65
2023/02/05 07:24:39;;;;;;;16.15;3.97;;;;;;;6.05;100.00;103994.22;10417105;28;20449;-63
2023/02/05 07:29:39;;;;;;;11.95;3.33;;;;;;;5.94;100.00;103993.16;10449657;28;20062;-65
2023/02/05 07:34:39;;;;;;;19.55;4.32;;;;;;;5.90;100.00;104015.75;10415795;28;20085;-65
2023/02/05 07:39:40;;;;;;;32.65;6.45;;;;;;;5.85;100.00;104021.44;10416325;28;20484;-64
2023/02/05 07:44:40;;;;;;;18.73;5.03;;;;;;;5.93;100.00;104034.44;10416966;28;20042;-64
2023/02/05 07:49:41;;;;;;;11.35;4.63;;;;;;;6.01;100.00;104022.28;10416217;28;20042;-64
2023/02/05 07:54:41;;;;;;;20.33;5.07;;;;;;;6.22;100.00;104019.25;10416065;28;20037;-65
2023/02/05 07:59:42;;;;;;;13.70;4.45;;;;;;;6.29;100.00;104026.88;10447876;28;20148;-64
2023/02/05 08:04:42;;;;;;;25.63;6.97;;;;;;;6.23;100.00;104027.25;10415684;28;20068;-64
2023/02/05 08:09:43;;;;;;;16.38;5.70;;;;;;;6.39;100.00;104043.34;10415694;28;20108;-64
2023/02/05 08:14:43;;;;;;;26.80;6.70;;;;;;;6.59;100.00;104050.19;10417045;28;20065;-65
2023/02/05 08:19:43;;;;;;;14.25;6.07;;;;;;;6.73;100.00;104054.72;10449418;28;20056;-64
2023/02/05 08:24:44;;;;;;;29.25;8.00;;;;;;;7.38;100.00;104054.25;10415373;28;20025;-65
2023/02/05 08:29:46;;;;;;;27.92;5.70;;;;;;;7.80;100.00;104055.94;10417387;28;20038;-65
2023/02/05 08:34:47;;;;;;;30.35;8.32;;;;;;;7.71;100.00;104058.38;10415199;28;20030;-66
2023/02/05 08:39:49;;;;;;;24.05;7.78;;;;;;;7.30;100.00;104062.81;10414738;28;20037;-66
2023/02/05 08:44:49;;;;;;;17.17;5.35;;;;;;;7.12;100.00;104074.78;10417091;28;20040;-66
2023/02/05 08:49:50;;;;;;;28.60;6.63;;;;;;;7.13;100.00;104085.44;10422776;28;20048;-66
2023/02/05 08:54:50;;;;;;;30.73;7.53;;;;;;;7.03;100.00;104097.78;10454939;28;20033;-66
2023/02/05 08:59:51;;;;;;;30.52;6.50;;;;;;;6.99;100.00;104113.25;10423595;28;20374;-65
2023/02/05 09:04:51;;;;;;;21.92;6.28;;;;;;;7.04;100.00;104106.72;10422124;28;20033;-66
2023/02/05 09:09:52;;;;;;;20.60;6.60;;;;;;;7.11;100.00;104100.84;10422272;28;20145;-71
2023/02/05 09:14:52;;;;;;;27.75;7.75;;;;;;;7.36;100.00;104110.94;10421705;28;20041;-67
2023/02/05 09:19:52;;;;;;;28.25;7.55;;;;;;;7.67;100.00;104114.38;10454938;28;20060;-66
2023/02/05 09:24:53;;;;;;;31.02;7.57;;;;;;;7.88;100.00;104095.91;10420776;28;20037;-66
2023/02/05 09:29:53;;;;;;;15.93;5.72;;;;;;;7.92;100.00;104074.03;10453403;28;20073;-67
2023/02/05 09:34:54;;;;;;;31.00;7.47;;;;;;;7.99;100.00;104085.25;10421664;28;20373;-67
2023/02/05 09:39:54;;;;;;;21.38;6.57;;;;;;;7.96;100.00;104095.41;10421003;28;20061;-66
2023/02/05 09:45:02;;;;;;;50.35;10.98;;;;;;;7.85;100.00;104074.53;10420467;28;20037;-65
2023/02/05 09:50:17;;;;;;;22.77;6.93;;;;;;;7.87;100.00;104110.38;10420258;28;20033;-66
2023/02/05 09:55:26;;;;;;;34.03;6.95;;;;;;;7.98;100.00;104097.03;10436198;28;20160;-66
2023/02/05 10:00:32;;;;;;;23.58;6.90;;;;;;;8.05;100.00;104135.28;10418635;28;20060;-67
2023/02/05 10:05:37;;;;;;;19.88;6.78;;;;;;;8.37;100.00;104125.88;10421227;28;20029;-66
2023/02/05 10:10:44;;;;;;;29.50;7.80;;;;;;;8.23;100.00;104119.66;10434178;28;20026;-66
2023/02/05 10:15:51;;;;;;;24.42;7.20;;;;;;;8.13;100.00;104124.81;10418785;28;20430;-67
2023/02/05 10:21:10;;;;;;;25.70;6.70;;;;;;;8.18;100.00;104114.59;10419657;28;20453;-68
2023/02/05 10:26:14;;;;;;;22.08;7.95;;;;;;;8.62;100.00;104108.03;10419033;28;20099;-66
2023/02/05 10:31:26;;;;;;;19.27;5.45;;;;;;;8.44;100.00;104120.09;10418478;28;20049;-67
2023/02/05 10:36:27;;;;;;;28.23;8.38;;;;;;;8.54;100.00;104123.91;10419254;28;20132;-68
2023/02/05 10:41:38;;;;;;;31.90;6.70;;;;;;;8.43;100.00;104135.44;10418836;28;20029;-67
2023/02/05 10:46:38;;;;;;;27.65;7.30;;;;;;;8.80;100.00;104122.09;10434423;28;20091;-67
2023/02/05 10:51:40;;;;;;;11.50;5.18;;;;;;;9.82;100.00;104135.50;10450107;28;20087;-67
2023/02/05 10:56:42;;;;;;;27.40;7.78;;;;;;;10.22;100.00;104119.00;10417220;28;20501;-68
2023/02/05 11:01:43;;;;;;;23.42;7.43;;;;;;;10.57;100.00;104124.44;10418429;28;20037;-67
2023/02/05 11:06:46;;;;;;;25.30;6.68;;;;;;;11.02;100.00;104129.97;10329408;28;20054;-66
2023/02/05 11:12:02;;;;;;;23.98;5.57;;;;;;;11.40;100.00;104128.75;10375782;28;20037;-67
2023/02/05 11:17:21;;;;;;;17.10;6.23;;;;;;;11.05;100.00;104121.59;10375941;28;20030;-67
2023/02/05 11:22:26;;;;;;;22.05;6.40;;;;;;;10.67;100.00;104106.47;10375931;28;20061;-69
2023/02/05 11:27:31;;;;;;;23.27;6.50;;;;;;;10.86;100.00;104105.06;10375342;28;20034;-67
2023/02/05 11:32:36;;;;;;;24.42;8.75;;;;;;;10.77;100.00;104100.34;10376928;28;20061;-67
2023/02/05 11:37:38;;;;;;;10.80;4.57;;;;;;;10.87;100.00;104115.75;10390324;28;20148;-67
2023/02/05 11:42:38;;;;;;;30.38;6.05;;;;;;;10.61;100.00;104101.53;10374119;28;20088;-67
2023/02/05 11:47:39;;;;;;;18.00;5.28;;;;;;;11.01;100.00;104116.50;10389917;28;20180;-67
2023/02/05 11:52:39;;;;;;;19.20;6.40;;;;;;;10.60;100.00;104093.53;10374269;28;20034;-66
2023/02/05 11:57:41;;;;;;;18.95;5.82;;;;;;;10.40;100.00;104106.78;10390531;28;20481;-66
2023/02/05 12:02:42;;;;;;;36.45;9.35;;;;;;;10.44;100.00;104116.41;10373614;28;20189;-68
2023/02/05 12:08:20;;;;;;;23.58;5.20;;;;;;;10.38;100.00;104130.41;10374566;28;20029;-67
2023/02/05 12:13:50;;;;;;;26.98;6.45;;;;;;;10.51;100.00;104124.06;10362005;28;20061;-66
2023/02/05 12:19:13;;;;;;;13.95;5.93;;;;;;;10.08;100.00;104140.81;10373273;28;20470;-66
2023/02/05 12:24:21;;;;;;;15.57;5.60;;;;;;;10.75;100.00;104124.00;10390679;28;20057;-67
2023/02/05 12:29:57;;;;;;;13.98;6.13;;;;;;;10.46;100.00;104133.41;10373831;28;20045;-66
2023/02/05 12:35:07;;;;;;;14.18;4.50;;;;;;;10.07;100.00;104131.84;10324671;28;20433;-67
2023/02/05 12:40:38;;;;;;;13.90;4.95;;;;;;;9.65;100.00;104119.66;10373634;28;20034;-66
2023/02/05 12:45:52;;;;;;;33.05;6.75;;;;;;;9.29;100.00;104122.22;10373499;28;20026;-66
2023/02/05 12:51:20;;;;;;;16.10;5.70;;;;;;;9.41;100.00;104125.00;10374849;28;20030;-67
2023/02/05 12:56:25;;;;;;;19.98;5.72;;;;;;;9.25;100.00;104128.81;10356215;28;20488;-67
2023/02/05 13:01:34;;;;;;;17.77;6.90;;;;;;;9.27;100.00;104134.09;10388517;28;20030;-67
2023/02/05 13:06:42;;;;;;;17.80;5.80;;;;;;;8.99;100.00;104143.28;10374451;28;20382;-67
2023/02/05 13:11:56;;;;;;;31.90;8.27;;;;;;;9.18;100.00;104121.22;10389567;28;20034;-67
2023/02/05 13:17:11;;;;;;;28.15;8.25;;;;;;;9.35;100.00;104128.13;10373068;28;20402;-67
2023/02/05 13:33:04;;;;;;;26.35;6.05;;;;;;;9.26;100.00;104160.28;10375737;28;20097;-70
2023/02/05 13:38:17;;;;;;;27.67;7.40;;;;;;;9.29;100.00;104151.09;10379808;28;20045;-68
2023/02/05 13:43:49;;;;;;;22.00;6.38;;;;;;;9.09;100.00;104138.97;10397032;28;20436;-70
2023/02/05 13:49:02;;;;;;;25.05;6.82;;;;;;;9.28;100.00;104165.56;10363159;28;20056;-70
2023/02/05 13:54:17;;;;;;;25.45;5.93;;;;;;;8.95;100.00;104147.19;10396728;28;20036;-70
2023/02/05 13:59:33;;;;;;;19.20;5.40;;;;;;;8.63;100.00;104157.53;10380805;28;20037;-66
2023/02/05 14:04:38;;;;;;;11.48;5.80;;;;;;;8.60;100.00;104162.16;10364908;28;20057;-67
2023/02/05 14:09:58;;;;;;;27.45;7.35;;;;;;;8.67;100.00;104159.91;10363022;28;20378;-66
2023/02/05 14:15:13;;;;;;;32.42;8.07;;;;;;;8.96;100.00;104148.91;10379734;28;20049;-67
2023/02/05 14:20:30;;;;;;;11.85;5.10;;;;;;;8.83;100.00;104152.47;10381154;28;20040;-67
2023/02/05 14:25:44;;;;;;;15.60;5.88;;;;;;;8.60;100.00;104134.28;10382490;28;20116;-67
2023/02/05 14:30:52;;;;;;;27.52;8.20;;;;;;;8.58;100.00;104137.09;10380030;28;20080;-67
2023/02/05 14:36:20;;;;;;;23.52;5.43;;;;;;;8.54;100.00;104148.22;10392852;28;20042;-66
2023/02/05 14:41:23;;;;;;;26.00;7.03;;;;;;;8.48;100.00;104156.72;10378517;28;20093;-67
2023/02/05 14:46:34;;;;;;;32.80;6.72;;;;;;;8.47;100.00;104169.38;10394728;28;20061;-66
2023/02/05 14:51:39;;;;;;;22.63;7.75;;;;;;;8.20;100.00;104171.16;10400859;28;20555;-66
2023/02/05 14:56:46;;;;;;;24.67;7.00;;;;;;;8.27;100.00;104189.59;10359514;28;20022;-67
2023/02/05 15:01:48;;;;;;;35.65;7.65;;;;;;;8.10;100.00;104171.81;10377043;28;20034;-68
2023/02/05 15:06:49;;;;;;;28.50;7.50;;;;;;;7.81;100.00;104170.13;10319309;28;20149;-67
2023/02/05 15:12:07;;;;;;;23.90;6.10;;;;;;;7.72;100.00;104185.06;10385974;28;20054;-68
2023/02/05 15:17:13;;;;;;;22.42;6.00;;;;;;;7.52;100.00;104190.88;10388900;28;20045;-65
2023/02/05 15:22:26;;;;;;;27.33;6.23;;;;;;;7.46;100.00;104192.97;10382629;28;20060;-68
2023/02/05 15:27:45;;;;;;;24.48;6.70;;;;;;;7.28;100.00;104199.53;10383105;28;20033;-66
2023/02/05 15:33:02;;;;;;;24.13;5.82;;;;;;;7.21;100.00;104196.34;10389602;28;20053;-67
2023/02/05 15:38:26;;;;;;;21.52;6.63;;;;;;;7.03;100.00;104216.34;10387864;28;20426;-66
2023/02/05 15:43:26;;;;;;;24.70;8.77;;;;;;;6.83;100.00;104216.66;10374463;28;20033;-66
2023/02/05 15:48:31;;;;;;;31.08;9.85;;;;;;;6.78;100.00;104227.72;10376337;28;20033;-67
2023/02/05 15:53:42;;;;;;;36.17;7.18;;;;;;;6.60;100.00;104210.78;10375067;28;20030;-68
2023/02/05 15:58:49;;;;;;;24.48;7.32;;;;;;;6.56;100.00;104232.63;10389274;28;20462;-66
2023/02/05 16:03:50;;;;;;;35.47;8.25;;;;;;;6.45;100.00;104249.41;10389921;28;20026;-67
2023/02/05 16:08:53;;;;;;;36.63;8.68;;;;;;;6.34;100.00;104262.59;10375874;28;20092;-66
2023/02/05 16:14:14;;;;;;;50.55;9.02;;;;;;;6.19;100.00;104262.53;10373552;28;20121;-66
2023/02/05 16:19:18;;;;;;;29.80;8.13;;;;;;;6.16;100.00;104277.94;10374518;28;20116;-66
2023/02/05 16:24:26;;;;;;;29.77;6.82;;;;;;;6.01;100.00;104258.16;10373191;28;20484;-66
2023/02/05 16:29:32;;;;;;;24.33;7.55;;;;;;;5.94;100.00;104264.84;10374754;28;20032;-66
2023/02/05 16:34:33;;;;;;;32.22;8.73;;;;;;;5.81;100.00;104273.53;10356802;28;20465;-66
2023/02/05 16:39:41;;;;;;;23.58;7.18;;;;;;;5.74;100.00;104277.53;10374083;28;20068;-66
2023/02/05 16:44:41;;;;;;;27.95;6.90;;;;;;;5.68;100.00;104272.47;10389449;28;20108;-66
2023/02/05 16:49:43;;;;;;;23.98;7.25;;;;;;;5.64;100.00;104284.31;10372145;28;20038;-66
2023/02/05 16:54:43;;;;;;;36.10;8.77;;;;;;;5.54;100.00;104296.53;10373514;28;20026;-66
2023/02/05 16:59:53;;;;;;;26.42;6.65;;;;;;;5.52;100.00;104298.41;10374787;28;20061;-66
2023/02/05 17:04:54;;;;;;;36.65;7.22;;;;;;;5.45;100.00;104297.88;10387593;28;20054;-66
2023/02/05 17:10:05;;;;;;;44.75;8.68;;;;;;;5.39;100.00;104300.88;10381416;28;20069;-66
2023/02/05 17:15:14;;;;;;;41.28;8.65;;;;;;;5.39;100.00;104308.94;10380360;28;20038;-66
2023/02/05 17:20:14;;;;;;;25.45;5.88;;;;;;;5.32;100.00;104312.91;10380620;28;20037;-68
2023/02/05 17:25:15;;;;;;;21.98;7.30;;;;;;;5.43;100.00;104323.13;10380236;28;20030;-66
2023/02/05 17:30:17;;;;;;;27.95;6.00;;;;;;;5.34;100.00;104332.50;10379498;28;20066;-66
2023/02/05 17:35:21;;;;;;;37.13;7.78;;;;;;;5.38;100.00;104341.28;10380368;28;20048;-66
2023/02/05 17:40:21;;;;;;;21.35;8.07;;;;;;;5.43;100.00;104341.94;10363891;28;20038;-66
2023/02/05 17:45:26;;;;;;;36.05;7.25;;;;;;;5.53;100.00;104356.63;10380524;28;20033;-66
2023/02/05 17:50:27;;;;;;;37.72;9.23;;;;;;;5.77;100.00;104357.13;10379025;28;20065;-66
2023/02/05 17:55:27;;;;;;;21.40;6.10;;;;;;;5.91;100.00;104351.06;10380074;28;20116;-66
2023/02/05 18:00:30;;;;;;;42.17;9.40;;;;;;;6.02;100.00;104345.97;10379972;28;20038;-66
2023/02/05 18:05:31;;;;;;;40.53;8.98;;;;;;;5.94;100.00;104334.78;10379180;28;20453;-66
2023/02/05 18:10:31;;;;;;;32.17;8.65;;;;;;;5.86;100.00;104331.59;10379682;28;20104;-66
2023/02/05 18:15:31;;;;;;;27.02;8.18;;;;;;;5.78;100.00;104334.69;10377737;28;20470;-67
2023/02/05 18:20:32;;;;;;;29.67;8.55;;;;;;;5.85;100.00;104340.63;10378332;28;20045;-66
2023/02/05 18:25:32;;;;;;;40.92;8.80;;;;;;;5.85;100.00;104327.16;10384808;28;20058;-66
2023/02/05 18:30:33;;;;;;;39.25;9.35;;;;;;;5.75;100.00;104313.34;10381950;28;20050;-66
2023/02/05 18:35:33;;;;;;;32.72;9.88;;;;;;;5.66;100.00;104338.91;10378174;28;20046;-66
2023/02/05 18:40:34;;;;;;;31.73;7.25;;;;;;;5.55;100.00;104352.00;10377289;28;20038;-66
2023/02/05 18:45:37;;;;;;;32.95;6.90;;;;;;;5.48;100.00;104364.91;10392447;28;20095;-66
2023/02/05 18:50:37;;;;;;;20.65;7.93;;;;;;;5.47;100.00;104354.25;10376982;28;20113;-66
2023/02/05 18:55:38;;;;;;;21.45;7.93;;;;;;;5.42;100.00;104361.66;10376702;28;20034;-66
2023/02/05 19:00:38;;;;;;;18.75;5.55;;;;;;;5.41;100.00;104370.69;10376598;28;20042;-67
2023/02/05 19:05:39;;;;;;;21.85;7.63;;;;;;;5.43;100.00;104384.94;10376912;28;20592;-66
2023/02/05 19:10:39;;;;;;;27.70;7.82;;;;;;;5.41;100.00;104384.13;10375570;28;20042;-66
2023/02/05 19:15:40;;;;;;;30.48;8.98;;;;;;;5.35;100.00;104388.00;10375832;28;20124;-67
2023/02/05 19:20:41;;;;;;;32.33;7.78;;;;;;;5.25;100.00;104390.28;10376799;28;20094;-67
2023/02/05 19:25:41;;;;;;;31.05;8.93;;;;;;;5.23;100.00;104375.16;10375431;28;20034;-66
2023/02/05 19:30:42;;;;;;;37.55;9.27;;;;;;;5.25;100.00;104410.91;10375081;28;20494;-66
2023/02/05 19:35:42;;;;;;;42.08;10.07;;;;;;;5.25;100.00;104409.06;10377086;28;20104;-66
2023/02/05 19:40:42;;;;;;;33.60;9.60;;;;;;;5.22;100.00;104397.63;10376940;28;20060;-66
2023/02/05 19:45:43;;;;;;;44.08;10.10;;;;;;;5.20;100.00;104392.34;10374512;28;20061;-66
2023/02/05 19:50:44;;;;;;;32.97;8.15;;;;;;;5.15;100.00;104391.69;10375472;28;20030;-66
2023/02/05 19:55:44;;;;;;;28.50;7.90;;;;;;;4.99;100.00;104380.81;10375487;28;20061;-67
2023/02/05 20:00:44;;;;;;;37.15;11.13;;;;;;;5.00;100.00;104379.88;10376517;28;20042;-66
2023/02/05 20:05:45;;;;;;;29.75;6.72;;;;;;;4.93;100.00;104381.13;10375279;28;20062;-67
2023/02/05 20:10:45;;;;;;;34.10;8.63;;;;;;;4.84;100.00;104395.84;10374918;28;20050;-65
2023/02/05 20:15:45;;;;;;;33.90;9.85;;;;;;;4.72;100.00;104404.50;10376472;28;20045;-66
2023/02/05 20:20:46;;;;;;;40.97;9.20;;;;;;;4.61;100.00;104393.41;10373956;28;20038;-67
2023/02/05 20:26:02;;;;;;;26.90;8.82;;;;;;;4.49;100.00;104399.34;10374907;28;20057;-66
2023/02/05 20:36:23;;;;;;;24.30;7.10;;;;;;;4.39;100.00;104402.47;10374501;28;20050;-65
2023/02/05 20:41:24;;;;;;;38.83;8.35;;;;;;;4.35;100.00;104410.72;10379844;28;20034;-66
2023/02/05 20:46:25;;;;;;;43.47;10.07;;;;;;;4.31;100.00;104396.59;10382469;28;20473;-66
2023/02/05 20:51:25;;;;;;;22.10;7.47;;;;;;;4.23;100.00;104396.06;10381909;28;20088;-65
2023/02/05 20:56:27;;;;;;;26.20;8.23;;;;;;;4.16;100.00;104386.56;10397498;28;20044;-66
2023/02/05 21:01:28;;;;;;;45.38;9.93;;;;;;;4.08;100.00;104397.63;10380515;28;20045;-66
2023/02/05 21:06:30;;;;;;;38.22;9.93;;;;;;;4.07;100.00;104397.69;10380393;28;20494;-66
2023/02/05 21:11:31;;;;;;;44.50;7.35;;;;;;;4.01;100.00;104406.00;10379812;28;20064;-66
2023/02/05 21:16:33;;;;;;;30.48;8.18;;;;;;;4.01;100.00;104419.41;10381306;28;20061;-66
2023/02/05 21:21:34;;;;;;;24.05;8.43;;;;;;;4.08;100.00;104428.94;10381287;28;20036;-66
2023/02/05 21:26:36;;;;;;;45.90;8.95;;;;;;;4.13;100.00;104421.56;10363546;28;20041;-67
2023/02/05 21:31:45;;;;;;;50.75;10.52;;;;;;;4.27;100.00;104421.78;10380332;28;20054;-66
2023/02/05 21:36:46;;;;;;;37.22;9.32;;;;;;;4.32;100.00;104422.47;10396845;28;20037;-65
2023/02/05 21:41:47;;;;;;;28.77;8.70;;;;;;;4.32;100.00;104410.88;10380956;28;20120;-67
2023/02/05 21:46:47;;;;;;;23.85;7.82;;;;;;;4.39;100.00;104415.00;10397040;28;20022;-67
2023/02/05 21:51:49;;;;;;;26.25;7.30;;;;;;;4.48;100.00;104427.13;10380157;28;20029;-66
2023/02/05 21:56:49;;;;;;;20.13;7.85;;;;;;;4.53;100.00;104426.00;10379090;28;20462;-67
2023/02/05 22:01:50;;;;;;;28.45;9.63;;;;;;;4.57;100.00;104435.63;10379616;28;20085;-66
2023/02/05 22:06:50;;;;;;;32.50;8.52;;;;;;;4.62;100.00;104424.66;10384225;28;20034;-66
2023/02/05 22:11:50;;;;;;;28.80;8.15;;;;;;;4.63;100.00;104432.66;10379582;28;20042;-66
2023/02/05 22:16:52;;;;;;;40.15;9.68;;;;;;;4.69;100.00;104438.66;10377929;28;20501;-67
2023/02/05 22:21:52;;;;;;;44.63;9.07;;;;;;;4.71;100.00;104429.59;10379245;28;20072;-67
2023/02/05 22:26:53;;;;;;;26.90;9.43;;;;;;;4.73;100.00;104426.88;10378700;28;20026;-67
2023/02/05 22:31:53;;;;;;;28.67;9.23;;;;;;;4.78;100.00;104423.00;10378916;28;20081;-67
2023/02/05 22:36:54;;;;;;;25.13;7.68;;;;;;;4.78;100.00;104422.13;10377217;28;20472;-66
2023/02/05 22:41:54;;;;;;;45.85;10.02;;;;;;;4.77;100.00;104413.22;10379474;28;20057;-67
2023/02/05 22:46:55;;;;;;;20.00;6.05;;;;;;;4.80;100.00;104428.31;10379168;28;20112;-67
2023/02/05 22:51:55;;;;;;;21.27;6.38;;;;;;;4.79;100.00;104421.22;10379049;28;20369;-67
2023/02/05 22:56:55;;;;;;;33.42;8.32;;;;;;;4.78;100.00;104419.44;10375696;28;20058;-66
2023/02/05 23:01:56;;;;;;;40.70;7.35;;;;;;;4.80;100.00;104420.25;10377917;28;20041;-66
2023/02/05 23:06:56;;;;;;;31.10;7.82;;;;;;;4.79;100.00;104413.16;10376942;28;20045;-66
2023/02/05 23:11:57;;;;;;;33.08;9.32;;;;;;;4.80;100.00;104423.81;10376526;28;20038;-66
2023/02/05 23:16:58;;;;;;;35.97;9.25;;;;;;;4.79;100.00;104427.44;10375565;28;20501;-66
2023/02/05 23:21:59;;;;;;;24.42;6.38;;;;;;;4.79;100.00;104432.81;10377675;28;20096;-66
2023/02/05 23:26:59;;;;;;;34.03;9.10;;;;;;;4.78;100.00;104436.44;10376531;28;20065;-65